createdAt,value
2018-11-28T00:01:37.927Z,16.50
2018-11-28T00:04:08.132Z,15.03
2018-11-28T00:06:37.657Z,17.67
2018-11-28T00:09:09.815Z,16.00
2018-11-28T00:11:39.290Z,17.13
2018-11-28T00:14:09.113Z,17.37
2018-11-28T00:16:38.676Z,17.30
2018-11-28T00:19:08.748Z,16.53
2018-11-28T00:21:38.182Z,16.00
2018-11-28T00:24:08.288Z,17.02
2018-11-28T00:26:37.570Z,15.67
2018-11-28T00:29:07.159Z,15.63
2018-11-28T00:31:36.886Z,16.20
2018-11-28T00:34:07.027Z,16.17
2018-11-28T00:36:36.395Z,16.50
2018-11-28T00:39:08.551Z,17.00
2018-11-28T00:41:38.541Z,15.70
2018-11-28T00:44:08.021Z,18.30
2018-11-28T00:46:37.620Z,16.90
2018-11-28T00:49:07.222Z,16.10
2018-11-28T00:51:36.701Z,15.23
2018-11-28T00:54:07.655Z,15.80
2018-11-28T00:56:37.095Z,15.23
2018-11-28T00:59:06.896Z,15.23
2018-11-28T01:01:36.241Z,14.07
2018-11-28T01:04:05.993Z,14.37
2018-11-28T01:06:35.593Z,14.53
2018-11-28T01:09:06.801Z,14.57
2018-11-28T01:11:36.104Z,14.80
2018-11-28T01:14:05.781Z,13.70
2018-11-28T01:16:35.445Z,12.83
2018-11-28T01:19:05.249Z,14.30
2018-11-28T01:21:34.832Z,14.75
2018-11-28T01:24:05.140Z,12.17
2018-11-28T01:26:34.431Z,13.38
2018-11-28T01:29:03.921Z,12.75
2018-11-28T01:31:34.788Z,12.70
2018-11-28T01:34:04.221Z,12.93
2018-11-28T01:36:34.091Z,12.50
2018-11-28T01:39:03.987Z,14.23
2018-11-28T01:41:33.570Z,12.37
2018-11-28T01:44:03.532Z,13.53
2018-11-28T01:46:32.976Z,13.53
2018-11-28T01:49:03.160Z,12.83
2018-11-28T01:51:32.475Z,11.78
2018-11-28T01:54:01.742Z,11.60
2018-11-28T01:56:31.790Z,12.90
2018-11-28T01:59:01.130Z,12.07
2018-11-28T02:01:30.435Z,13.00
2018-11-28T02:04:00.342Z,12.17
2018-11-28T02:06:30.813Z,12.10
2018-11-28T02:09:00.133Z,10.43
2018-11-28T02:11:30.030Z,11.05
2018-11-28T02:13:59.333Z,12.00
2018-11-28T02:16:28.677Z,11.40
2018-11-28T02:18:58.665Z,12.70
2018-11-28T02:21:28.128Z,11.80
2018-11-28T02:23:58.957Z,13.57
2018-11-28T02:26:28.351Z,11.03
2018-11-28T02:28:57.730Z,11.33
2018-11-28T02:31:27.382Z,10.67
2018-11-28T02:33:56.946Z,13.00
2018-11-28T02:36:26.421Z,11.48
2018-11-28T02:38:55.965Z,11.60
2018-11-28T02:41:25.610Z,12.33
2018-11-28T02:43:55.070Z,12.10
2018-11-28T02:46:30.475Z,12.40
2018-11-28T02:49:00.078Z,11.90
2018-11-28T02:51:29.422Z,11.50
2018-11-28T02:53:58.730Z,12.53
2018-11-28T02:56:28.759Z,11.90
2018-11-28T02:58:58.955Z,11.40
2018-11-28T03:01:28.462Z,12.17
2018-11-28T03:03:58.526Z,11.70
2018-11-28T03:06:28.447Z,13.80
2018-11-28T03:08:57.897Z,12.83
2018-11-28T03:11:27.360Z,12.05
2018-11-28T03:13:57.201Z,11.77
2018-11-28T03:16:26.494Z,13.05
2018-11-28T03:18:56.637Z,13.63
2018-11-28T03:21:26.677Z,14.30
2018-11-28T03:23:56.107Z,12.73
2018-11-28T03:26:26.227Z,14.70
2018-11-28T03:28:56.050Z,15.83
2018-11-28T03:31:25.614Z,14.50
2018-11-28T03:33:55.071Z,16.87
2018-11-28T03:36:25.249Z,16.73
2018-11-28T03:38:55.030Z,15.23
2018-11-28T03:41:24.533Z,16.37
2018-11-28T03:43:54.636Z,14.50
2018-11-28T03:46:24.028Z,15.48
2018-11-28T03:48:54.127Z,15.80
2018-11-28T03:51:23.518Z,14.43
2018-11-28T03:53:53.768Z,14.50
2018-11-28T03:56:23.395Z,14.07
2018-11-28T03:58:53.066Z,14.30
2018-11-28T04:01:22.533Z,14.00
2018-11-28T04:03:52.397Z,13.97
2018-11-28T04:06:21.862Z,12.63
2018-11-28T04:08:51.916Z,11.13
2018-11-28T04:11:22.983Z,11.37
2018-11-28T04:13:52.386Z,12.70
2018-11-28T04:16:23.490Z,10.87
2018-11-28T04:18:53.367Z,10.80
2018-11-28T04:21:23.121Z,11.60
2018-11-28T04:23:53.858Z,10.39
2018-11-28T04:26:24.132Z,11.40
2018-11-28T04:28:54.326Z,9.77
2018-11-28T04:31:24.641Z,11.13
2018-11-28T04:33:54.761Z,9.83
2018-11-28T04:36:27.088Z,9.63
2018-11-28T04:38:57.034Z,8.97
2018-11-28T04:41:30.129Z,8.97
2018-11-28T04:44:00.462Z,9.00
2018-11-28T04:46:30.617Z,9.80
2018-11-28T04:49:00.711Z,9.83
2018-11-28T04:51:30.268Z,8.50
2018-11-28T04:54:00.467Z,8.70
2018-11-28T04:56:30.587Z,8.90
2018-11-28T04:59:00.122Z,9.57
2018-11-28T05:01:29.794Z,9.23
2018-11-28T05:03:59.922Z,8.88
2018-11-28T05:07:43.329Z,11.07
2018-11-28T05:10:24.483Z,9.17
2018-11-28T05:12:54.499Z,9.97
2018-11-28T05:15:28.858Z,9.03
2018-11-28T05:17:58.450Z,9.87
2018-11-28T05:20:29.162Z,8.60
2018-11-28T05:22:59.206Z,6.30
2018-11-28T05:25:29.351Z,6.97
2018-11-28T05:27:59.603Z,7.03
2018-11-28T05:30:30.113Z,7.55
2018-11-28T05:33:00.081Z,7.10
2018-11-28T05:35:33.255Z,6.50
2018-11-28T05:38:04.263Z,7.70
2018-11-28T05:40:33.869Z,7.97
2018-11-28T05:43:03.696Z,7.40
2018-11-28T05:45:33.115Z,8.60
2018-11-28T05:48:03.038Z,8.43
2018-11-28T05:50:33.304Z,8.57
2018-11-28T05:53:03.664Z,9.77
2018-11-28T05:55:33.719Z,8.18
2018-11-28T05:58:03.820Z,7.47
2018-11-28T06:00:38.534Z,11.70
2018-11-28T06:03:09.148Z,8.77
2018-11-28T06:05:38.515Z,8.60
2018-11-28T06:08:08.539Z,7.67
2018-11-28T06:10:38.959Z,8.27
2018-11-28T06:13:10.524Z,8.27
2018-11-28T06:15:40.125Z,8.13
2018-11-28T06:18:10.400Z,7.80
2018-11-28T06:20:39.744Z,8.00
2018-11-28T06:23:09.771Z,8.80
2018-11-28T06:25:39.547Z,8.53
2018-11-28T06:28:09.187Z,9.17
2018-11-28T06:30:39.412Z,9.50
2018-11-28T06:33:10.557Z,8.90
2018-11-28T06:35:39.872Z,8.90
2018-11-28T06:38:09.250Z,7.93
2018-11-28T06:40:39.147Z,9.28
2018-11-28T06:43:09.378Z,8.37
2018-11-28T06:45:38.796Z,8.37
2018-11-28T06:48:09.327Z,8.37
2018-11-28T06:50:40.463Z,7.80
2018-11-28T06:53:10.405Z,8.70
2018-11-28T06:55:40.513Z,7.63
2018-11-28T06:58:10.894Z,7.63
2018-11-28T07:00:40.930Z,7.55
2018-11-28T07:03:10.989Z,8.40
2018-11-28T07:05:41.191Z,9.07
2018-11-28T07:08:11.463Z,9.97
2018-11-28T07:10:42.757Z,9.90
2018-11-28T07:13:12.807Z,10.30
2018-11-28T07:15:43.365Z,10.93
2018-11-28T07:18:23.932Z,10.78
2018-11-28T07:20:54.467Z,9.40
2018-11-28T07:23:24.409Z,13.10
2018-11-28T07:25:54.058Z,15.27
2018-11-28T07:28:23.998Z,13.20
2018-11-28T07:30:53.993Z,27.17
2018-11-28T07:33:24.712Z,14.77
2018-11-28T07:35:54.577Z,12.90
2018-11-28T07:38:24.428Z,10.83
2018-11-28T07:40:54.678Z,10.03
2018-11-28T07:43:24.214Z,8.77
2018-11-28T07:45:54.069Z,11.33
2018-11-28T07:48:24.294Z,10.40
2018-11-28T07:50:53.679Z,10.03
2018-11-28T07:53:23.670Z,18.70
2018-11-28T07:55:53.474Z,9.80
2018-11-28T07:58:23.109Z,9.40
2018-11-28T08:00:52.469Z,10.40
2018-11-28T08:03:22.515Z,8.98
2018-11-28T08:05:52.074Z,10.00
2018-11-28T08:08:45.989Z,9.68
2018-11-28T08:11:22.626Z,9.37
2018-11-28T08:13:52.579Z,9.53
2018-11-28T08:16:21.930Z,9.07
2018-11-28T08:18:51.278Z,10.10
2018-11-28T08:21:21.594Z,8.93
2018-11-28T08:23:51.582Z,9.03
2018-11-28T08:26:20.984Z,11.20
2018-11-28T08:28:50.564Z,10.80
2018-11-28T08:31:20.066Z,10.03
2018-11-28T08:33:50.351Z,9.08
2018-11-28T08:36:20.400Z,8.60
2018-11-28T08:38:50.786Z,8.77
2018-11-28T08:41:20.333Z,13.07
2018-11-28T08:43:49.699Z,11.37
2018-11-28T08:46:19.628Z,13.33
2018-11-28T08:48:49.134Z,10.37
2018-11-28T08:51:18.743Z,11.80
2018-11-28T08:53:48.924Z,9.07
2018-11-28T08:56:19.096Z,11.30
2018-11-28T08:58:48.560Z,9.80
2018-11-28T09:01:18.582Z,15.18
2018-11-28T09:03:47.947Z,22.17
2018-11-28T09:06:18.112Z,10.20
2018-11-28T09:08:47.821Z,9.80
2018-11-28T09:11:17.245Z,9.30
2018-11-28T09:13:46.645Z,10.37
2018-11-28T09:16:16.161Z,10.00
2018-11-28T09:18:45.995Z,10.10
2018-11-28T09:21:15.896Z,10.03
2018-11-28T09:23:45.474Z,11.12
2018-11-28T09:26:20.672Z,9.83
2018-11-28T09:28:50.594Z,10.23
2018-11-28T09:31:19.999Z,11.93
2018-11-28T09:33:50.316Z,11.10
2018-11-28T09:36:20.414Z,10.87
2018-11-28T09:38:49.720Z,10.10
2018-11-28T09:41:19.801Z,10.83
2018-11-28T09:43:49.208Z,10.60
2018-11-28T09:46:19.456Z,9.93
2018-11-28T09:48:49.339Z,10.07
2018-11-28T09:51:18.627Z,10.90
2018-11-28T09:53:48.201Z,9.83
2018-11-28T09:56:17.720Z,9.98
2018-11-28T09:58:47.202Z,10.23
2018-11-28T10:01:17.546Z,10.20
2018-11-28T10:03:47.763Z,10.37
2018-11-28T10:06:17.182Z,10.27
2018-11-28T10:08:46.601Z,11.53
2018-11-28T10:11:16.371Z,10.98
2018-11-28T10:13:45.725Z,10.77
2018-11-28T10:16:15.820Z,10.20
2018-11-28T10:18:45.817Z,11.70
2018-11-28T10:21:15.526Z,10.30
2018-11-28T10:23:45.371Z,10.40
2018-11-28T10:26:14.950Z,11.03
2018-11-28T10:28:45.055Z,12.73
2018-11-28T10:31:16.511Z,13.67
2018-11-28T10:33:45.955Z,13.53
2018-11-28T10:36:15.443Z,11.00
2018-11-28T10:38:44.707Z,11.97
2018-11-28T10:41:14.982Z,12.30
2018-11-28T10:43:44.621Z,13.00
2018-11-28T10:46:14.245Z,12.60
2018-11-28T10:48:44.492Z,12.70
2018-11-28T10:51:13.770Z,13.70
2018-11-28T10:53:43.472Z,13.70
2018-11-28T10:56:12.991Z,12.90
2018-11-28T10:58:42.441Z,14.00
2018-11-28T11:01:17.407Z,13.50
2018-11-28T11:03:51.928Z,13.20
2018-11-28T11:06:26.461Z,12.17
2018-11-28T11:09:01.150Z,13.43
2018-11-28T11:11:35.908Z,13.10
2018-11-28T11:14:10.608Z,13.27
2018-11-28T11:16:40.220Z,12.03
2018-11-28T11:19:10.481Z,12.63
2018-11-28T11:21:40.808Z,12.03
2018-11-28T11:24:10.541Z,12.55
2018-11-28T11:26:39.905Z,12.80
2018-11-28T11:29:09.526Z,12.82
2018-11-28T11:31:39.123Z,11.63
2018-11-28T11:34:08.906Z,12.00
2018-11-28T11:36:38.652Z,13.10
2018-11-28T11:39:08.810Z,11.90
2018-11-28T11:41:39.002Z,11.57
2018-11-28T11:44:09.266Z,12.67
2018-11-28T11:46:38.616Z,12.47
2018-11-28T11:49:08.511Z,10.20
2018-11-28T11:51:38.005Z,13.77
2018-11-28T11:54:08.024Z,10.27
2018-11-28T11:56:37.390Z,11.00
2018-11-28T11:59:07.407Z,11.48
2018-11-28T12:01:36.730Z,10.73
2018-11-28T12:04:06.173Z,11.10
2018-11-28T12:06:35.633Z,10.60
2018-11-28T12:09:08.249Z,11.10
2018-11-28T12:11:37.738Z,10.60
2018-11-28T12:14:07.326Z,10.50
2018-11-28T12:16:36.863Z,9.80
2018-11-28T12:19:06.696Z,9.20
2018-11-28T12:21:36.932Z,9.30
2018-11-28T12:24:06.536Z,9.10
2018-11-28T12:26:36.972Z,8.33
2018-11-28T12:29:07.216Z,8.47
2018-11-28T12:31:37.096Z,8.60
2018-11-28T12:34:07.361Z,8.83
2018-11-28T12:36:36.766Z,8.00
2018-11-28T12:39:10.512Z,7.20
2018-11-28T12:41:39.885Z,5.93
2018-11-28T12:44:09.371Z,7.17
2018-11-28T12:46:39.257Z,6.60
2018-11-28T12:49:08.507Z,6.30
2018-11-28T12:51:37.934Z,7.13
2018-11-28T12:54:08.207Z,9.40
2018-11-28T12:56:37.810Z,6.53
2018-11-28T12:59:07.402Z,6.70
2018-11-28T13:01:36.884Z,5.83
2018-11-28T13:04:07.335Z,5.70
2018-11-28T13:06:36.886Z,5.03
2018-11-28T13:09:07.437Z,5.40
2018-11-28T13:11:37.007Z,6.07
2018-11-28T13:14:06.907Z,5.78
2018-11-28T13:16:36.731Z,5.77
2018-11-28T13:19:06.683Z,5.50
2018-11-28T13:21:36.211Z,5.60
2018-11-28T13:24:06.363Z,4.83
2018-11-28T13:26:36.092Z,5.57
2018-11-28T13:29:06.253Z,5.62
2018-11-28T13:31:35.949Z,5.50
2018-11-28T13:34:06.244Z,5.33
2018-11-28T13:36:35.646Z,5.97
2018-11-28T13:39:06.155Z,5.73
2018-11-28T13:41:35.836Z,5.27
2018-11-28T13:44:05.336Z,5.47
2018-11-28T13:46:35.211Z,5.80
2018-11-28T13:49:05.709Z,5.50
2018-11-28T13:51:35.366Z,5.03
2018-11-28T13:54:20.797Z,5.43
2018-11-28T13:59:04.303Z,5.87
2018-11-28T14:01:34.536Z,4.93
2018-11-28T14:04:04.037Z,5.50
2018-11-28T14:06:33.805Z,6.23
2018-11-28T14:09:04.952Z,5.40
2018-11-28T14:11:34.441Z,6.03
2018-11-28T14:14:05.432Z,5.60
2018-11-28T14:16:34.783Z,5.43
2018-11-28T14:19:04.261Z,5.93
2018-11-28T14:21:33.923Z,5.47
2018-11-28T14:24:04.338Z,6.20
2018-11-28T14:26:33.714Z,6.40
2018-11-28T14:29:03.527Z,6.63
2018-11-28T14:31:33.886Z,7.40
2018-11-28T14:34:03.393Z,6.47
2018-11-28T14:36:33.408Z,5.60
2018-11-28T14:39:02.856Z,6.37
2018-11-28T14:41:33.620Z,7.23
2018-11-28T14:44:02.264Z,6.57
2018-11-28T14:46:32.128Z,6.90
2018-11-28T14:49:02.312Z,7.13
2018-11-28T14:51:32.663Z,6.40
2018-11-28T14:54:02.784Z,7.80
2018-11-28T14:56:32.269Z,7.37
2018-11-28T14:59:02.332Z,8.17
2018-11-28T15:01:32.551Z,8.48
2018-11-28T15:04:02.706Z,8.07
2018-11-28T15:06:34.928Z,7.10
2018-11-28T15:09:12.921Z,7.93
2018-11-28T15:11:43.514Z,8.27
2018-11-28T15:14:13.156Z,7.63
2018-11-28T15:16:43.302Z,8.27
2018-11-28T15:19:12.658Z,8.53
2018-11-28T15:21:42.929Z,7.70
2018-11-28T15:24:13.004Z,8.10
2018-11-28T15:26:42.277Z,7.92
2018-11-28T15:29:11.692Z,9.47
2018-11-28T15:31:41.609Z,8.87
2018-11-28T15:34:11.304Z,8.60
2018-11-28T15:36:41.013Z,8.90
2018-11-28T15:39:11.224Z,8.50
2018-11-28T15:41:40.755Z,8.90
2018-11-28T15:44:10.646Z,8.70
2018-11-28T15:46:40.899Z,9.30
2018-11-28T15:49:12.407Z,8.40
2018-11-28T15:51:41.940Z,9.30
2018-11-28T15:54:11.457Z,7.53
2018-11-28T15:56:41.024Z,9.25
2018-11-28T15:59:10.492Z,9.63
2018-11-28T16:01:40.159Z,9.47
2018-11-28T16:04:09.574Z,9.43
2018-11-28T16:06:39.532Z,9.20
2018-11-28T16:09:13.669Z,9.70
2018-11-28T16:11:43.083Z,10.93
2018-11-28T16:14:12.967Z,8.90
2018-11-28T16:16:42.440Z,10.15
2018-11-28T16:19:12.012Z,10.00
2018-11-28T16:21:41.817Z,9.58
2018-11-28T16:24:12.936Z,10.77
2018-11-28T16:26:43.155Z,10.77
2018-11-28T16:29:14.553Z,10.80
2018-11-28T16:31:44.463Z,11.63
2018-11-28T16:34:14.855Z,11.20
2018-11-28T16:36:44.882Z,11.63
2018-11-28T16:39:15.979Z,10.50
2018-11-28T16:41:45.914Z,9.40
2018-11-28T16:44:16.367Z,10.57
2018-11-28T16:46:46.936Z,10.70
2018-11-28T16:49:17.809Z,10.40
2018-11-28T16:51:48.003Z,9.60
2018-11-28T16:54:18.048Z,11.03
2018-11-28T16:56:47.645Z,12.00
2018-11-28T16:59:18.103Z,19.32
2018-11-28T17:01:47.887Z,13.90
2018-11-28T17:04:17.970Z,11.25
2018-11-28T17:06:48.413Z,9.50
2018-11-28T17:09:18.564Z,9.97
2018-11-28T17:11:48.753Z,10.13
2018-11-28T17:14:18.737Z,9.40
2018-11-28T17:16:48.417Z,9.80
2018-11-28T17:19:18.439Z,9.70
2018-11-28T17:21:48.483Z,11.20
2018-11-28T17:24:18.406Z,11.20
2018-11-28T17:26:48.376Z,10.13
2018-11-28T17:29:18.583Z,10.97
2018-11-28T17:31:48.427Z,10.17
2018-11-28T17:34:18.142Z,10.30
2018-11-28T17:36:48.178Z,10.40
2018-11-28T17:39:17.882Z,10.60
2018-11-28T17:41:47.994Z,11.00
2018-11-28T17:44:19.270Z,11.30
2018-11-28T17:46:49.617Z,10.13
2018-11-28T17:49:19.784Z,11.00
2018-11-28T17:51:50.843Z,12.10
2018-11-28T17:54:21.073Z,11.80
2018-11-28T17:56:51.250Z,12.00
2018-11-28T17:59:21.928Z,11.97
2018-11-28T18:01:52.653Z,10.87
2018-11-28T18:04:22.840Z,10.77
2018-11-28T18:06:52.923Z,10.30
2018-11-28T18:09:23.479Z,11.38
2018-11-28T18:11:53.576Z,10.83
2018-11-28T18:14:23.694Z,11.10
2018-11-28T18:16:53.734Z,12.10
2018-11-28T18:19:23.732Z,12.25
2018-11-28T18:21:53.930Z,11.80
2018-11-28T18:24:24.226Z,10.03
2018-11-28T18:26:54.344Z,11.17
2018-11-28T18:29:24.914Z,11.80
2018-11-28T18:31:55.904Z,11.47
2018-11-28T18:34:26.179Z,12.50
2018-11-28T18:36:56.206Z,12.00
2018-11-28T18:39:26.668Z,11.38
2018-11-28T18:41:56.815Z,12.10
2018-11-28T18:44:28.257Z,14.00
2018-11-28T18:46:58.157Z,21.57
2018-11-28T18:49:28.775Z,12.67
2018-11-28T18:51:59.107Z,12.45
2018-11-28T18:54:28.949Z,11.00
2018-11-28T18:56:58.881Z,11.37
2018-11-28T18:59:29.109Z,12.73
2018-11-28T19:02:00.543Z,12.60
2018-11-28T19:04:32.616Z,11.73
2018-11-28T19:07:03.047Z,14.33
2018-11-28T19:09:38.707Z,14.10
2018-11-28T19:12:10.051Z,16.07
2018-11-28T19:14:40.118Z,14.27
2018-11-28T19:17:10.402Z,14.60
2018-11-28T19:19:40.668Z,12.63
2018-11-28T19:22:10.852Z,14.30
2018-11-28T19:24:41.727Z,11.50
2018-11-28T19:27:13.426Z,12.10
2018-11-28T19:29:44.293Z,13.80
2018-11-28T19:32:16.374Z,13.63
2018-11-28T19:34:47.558Z,14.35
2018-11-28T19:37:19.000Z,13.20
2018-11-28T19:39:48.865Z,14.28
2018-11-28T19:42:19.028Z,13.17
2018-11-28T19:44:49.541Z,13.73
2018-11-28T19:47:19.693Z,12.47
2018-11-28T19:49:49.628Z,13.77
2018-11-28T19:52:20.038Z,12.73
2018-11-28T19:54:51.200Z,13.80
2018-11-28T19:57:22.462Z,12.60
2018-11-28T19:59:54.385Z,14.37
2018-11-28T20:02:24.842Z,13.40
2018-11-28T20:04:55.754Z,12.80
2018-11-28T20:07:26.089Z,14.73
2018-11-28T20:09:59.215Z,15.50
2018-11-28T20:12:29.096Z,12.40
2018-11-28T20:14:59.326Z,12.03
2018-11-28T20:17:32.634Z,12.10
2018-11-28T20:20:03.170Z,12.00
2018-11-28T20:22:34.997Z,11.85
2018-11-28T20:25:06.473Z,11.20
2018-11-28T20:27:37.544Z,13.00
2018-11-28T20:30:17.958Z,12.07
2018-11-28T20:32:49.464Z,14.03
2018-11-28T20:35:20.665Z,12.20
2018-11-28T20:37:50.568Z,13.40
2018-11-28T20:40:23.832Z,13.00
2018-11-28T20:42:55.352Z,11.90
2018-11-28T20:45:25.585Z,12.17
2018-11-28T20:47:55.459Z,14.13
2018-11-28T20:50:27.765Z,13.63
2018-11-28T20:53:00.601Z,13.58
2018-11-28T20:55:31.237Z,13.20
2018-11-28T20:58:01.243Z,12.33
2018-11-28T21:00:30.999Z,13.32
2018-11-28T21:03:01.555Z,18.23
2018-11-28T21:05:31.562Z,26.57
2018-11-28T21:08:01.679Z,24.53
2018-11-28T21:10:36.853Z,21.27
2018-11-28T21:13:08.047Z,26.90
2018-11-28T21:15:37.881Z,25.50
2018-11-28T21:18:09.373Z,23.32
2018-11-28T21:20:40.508Z,21.37
2018-11-28T21:23:11.850Z,18.35
2018-11-28T21:25:42.041Z,15.60
2018-11-28T21:28:11.983Z,15.90
2018-11-28T21:30:41.640Z,16.37
2018-11-28T21:33:12.452Z,17.50
2018-11-28T21:35:43.951Z,15.23
2018-11-28T21:38:13.777Z,14.80
2018-11-28T21:40:43.393Z,14.10
2018-11-28T21:43:12.917Z,16.40
2018-11-28T21:45:42.468Z,17.10
2018-11-28T21:48:15.464Z,17.37
2018-11-28T21:50:45.828Z,17.67
2018-11-28T21:53:16.127Z,19.43
2018-11-28T21:55:46.053Z,18.50
2018-11-28T21:58:15.760Z,16.83
2018-11-28T22:00:45.644Z,20.20
2018-11-28T22:03:15.401Z,16.90
2018-11-28T22:05:45.002Z,17.93
2018-11-28T22:08:15.314Z,17.57
2018-11-28T22:10:45.502Z,17.60
2018-11-28T22:13:15.674Z,18.10
2018-11-28T22:15:45.927Z,17.07
2018-11-28T22:18:15.554Z,15.97
2018-11-28T22:20:45.238Z,17.13
2018-11-28T22:23:15.600Z,16.87
2018-11-28T22:25:46.272Z,16.07
2018-11-28T22:28:16.074Z,16.53
2018-11-28T22:30:46.129Z,16.40
2018-11-28T22:33:16.319Z,16.30
2018-11-28T22:35:46.474Z,16.20
2018-11-28T22:38:15.754Z,16.83
2018-11-28T22:40:45.853Z,16.63
2018-11-28T22:43:15.203Z,14.77
2018-11-28T22:45:45.605Z,17.00
2018-11-28T22:48:15.139Z,15.63
2018-11-28T22:50:44.763Z,17.13
2018-11-28T22:53:14.167Z,16.17
2018-11-28T22:55:43.668Z,14.00
2018-11-28T22:58:13.398Z,14.40
2018-11-28T23:00:48.693Z,13.93
2018-11-28T23:03:18.790Z,12.80
2018-11-28T23:05:50.765Z,13.07
2018-11-28T23:08:21.122Z,13.57
2018-11-28T23:10:52.110Z,13.50
2018-11-28T23:13:23.895Z,13.38
2018-11-28T23:15:53.533Z,13.38
2018-11-28T23:18:23.570Z,11.47
2018-11-28T23:20:53.893Z,12.57
2018-11-28T23:23:23.253Z,12.80
2018-11-28T23:25:54.797Z,11.93
2018-11-28T23:28:24.195Z,10.88
2018-11-28T23:30:53.664Z,12.10
2018-11-28T23:33:23.028Z,11.27
2018-11-28T23:35:53.370Z,11.23
2018-11-28T23:38:24.158Z,11.75
2018-11-28T23:40:54.386Z,12.10
2018-11-28T23:43:24.410Z,10.73
2018-11-28T23:45:54.020Z,11.83
2018-11-28T23:48:24.226Z,11.20
2018-11-28T23:50:54.239Z,11.30
2018-11-28T23:53:24.219Z,12.03
2018-11-28T23:55:53.835Z,10.23
2018-11-28T23:58:23.543Z,11.40
